Latest Weather Observations for Point Perpendicular

IDN60801

Issued at 11:32 am EDT Monday 30 March 2015 (issued every 30 minutes, with the page automatically refreshed every 10 minutes)

About weather observations | Map of weather stations | Latest weather observations for NSW | Other Formats
Station Details ID: 068151 Name: POINT PERPENDICULAR AWS Lat: -35.09 Lon: 150.80 Height: 85.0 m
Data from the previous 72 hours. | See also: Recent months at Point Perpendicular
Date/Time
EDT
Temp
°C
App
Temp
°C
Dew
Point
Rel
Hum
%
Delta-T
°C
Wind Press
QNH
hPa
Press
MSL
hPa
Rain
since 9 am
mm
Dir
 
Spd
km/h
Gust
km/h
Spd
kts
Gust
kts
30/11:30am 19.3 19.9 16.7 85 1.6 SSW 9 13 5 7 1024.8 1024.5 0.0
30/11:00am 18.7 19.7 16.3 86 1.4 SW 6 7 3 4 1025.1 1024.8 0.0
30/10:30am 17.8 18.5 15.6 87 1.3 WNW 6 9 3 5 1025.4 1025.1 0.0
30/10:00am 17.7 18.1 15.3 86 1.4 WSW 7 11 4 6 1025.2 1024.9 0.0
30/09:30am 18.2 19.0 15.8 86 1.4 WSW 6 9 3 5 1025.2 1024.9 0.0
30/09:00am 17.8 18.5 15.6 87 1.3 WNW 6 7 3 4 1025.2 1024.9 0.0
30/08:30am 17.9 18.1 15.7 87 1.3 W 9 11 5 6 1025.0 1024.7 0.0
30/08:00am 17.8 18.0 15.8 88 1.2 WSW 9 13 5 7 1024.6 1024.3 0.0
30/07:30am 17.8 17.6 15.8 88 1.2 WSW 11 13 6 7 1024.3 1024.0 0.0
30/07:00am 17.6 17.7 15.6 88 1.2 WSW 9 15 5 8 1024.0 1023.7 0.0
30/06:30am 17.7 17.4 15.5 87 1.3 SW 11 15 6 8 1023.7 1023.4 0.0
30/06:00am 17.5 17.2 15.5 88 1.2 WSW 11 15 6 8 1023.2 1023.0 0.0
30/05:30am 17.7 18.0 15.9 89 1.1 SW 9 13 5 7 1022.8 1022.6 0.0
30/05:00am 17.8 18.1 16.0 89 1.1 WSW 9 13 5 7 1022.5 1022.3 0.0
30/04:30am 17.6 17.8 15.8 89 1.1 SW 9 13 5 7 1022.4 1022.2 0.0
30/04:00am 17.5 17.7 15.8 90 1.0 SW 9 13 5 7 1022.5 1022.3 0.0
30/03:30am 17.4 17.7 15.9 91 0.9 SW 9 11 5 6 1022.5 1022.3 0.0
30/03:00am 17.1 17.5 16.3 95 0.5 WSW 9 11 5 6 1022.6 1022.4 0.0
30/02:30am 17.1 17.7 16.9 99 0.1 W 9 11 5 6 1022.9 1022.7 0.0
30/02:00am 17.1 17.7 16.9 99 0.1 W 9 11 5 6 1023.0 1022.8 0.0
30/01:30am 16.8 17.3 16.5 98 0.2 NW 9 11 5 6 1022.8 1022.6 0.0
30/01:00am 16.7 16.6 16.1 96 0.4 NNW 11 11 6 6 1022.7 1022.5 0.0
30/12:30am 17.8 17.7 16.1 90 1.0 N 11 13 6 7 1022.8 1022.6 0.0
30/12:00am 18.3 18.4 16.5 89 1.1 N 11 15 6 8 1023.0 1022.8 0.0
 
Date/Time
EDT
Temp
°C
App
Temp
°C
Dew
Point
Rel
Hum
%
Delta-T
°C
Wind Press
QNH
hPa
Press
MSL
hPa
Rain
since 9 am
mm
Dir
 
Spd
km/h
Gust
km/h
Spd
kts
Gust
kts
29/11:30pm 18.6 18.9 17.1 91 0.9 N 11 13 6 7 1023.2 1023.0 0.0
29/11:00pm 18.9 18.9 17.2 90 1.0 N 13 15 7 8 1023.3 1023.1 0.0
29/10:30pm 19.5 19.3 17.5 88 1.2 NNE 15 20 8 11 1023.3 1023.1 0.0
29/10:00pm 19.6 19.3 17.4 87 1.3 NNE 15 20 8 11 1023.0 1022.8 0.0
29/09:30pm 19.5 19.2 17.3 87 1.3 NNE 15 22 8 12 1022.8 1022.6 0.0
29/09:00pm 19.5 19.2 17.3 87 1.3 NNE 15 22 8 12 1022.3 1022.1 0.0
29/08:30pm 19.5 19.5 17.1 86 1.5 NNE 13 17 7 9 1022.4 1022.2 0.0
29/08:00pm 19.6 18.8 17.2 86 1.5 NNE 17 22 9 12 1022.0 1021.8 0.0
29/07:30pm 19.5 18.6 16.9 85 1.6 NNE 17 22 9 12 1021.4 1021.2 0.0
29/07:00pm 19.9 19.0 16.9 83 1.8 NNE 17 26 9 14 1021.1 1020.9 0.0
29/06:30pm 20.5 20.0 16.9 80 2.2 NNE 15 26 8 14 1021.0 1020.8 0.0
29/06:00pm 20.6 19.6 16.6 78 2.4 NNE 17 24 9 13 1020.9 1020.7 0.0
29/05:30pm 21.1 19.7 16.5 75 2.8 NNE 19 28 10 15 1020.7 1020.5 0.0
29/05:00pm 21.4 19.8 16.4 73 3.0 NNE 20 28 11 15 1020.8 1020.6 0.0
29/04:30pm 21.7 19.8 15.8 69 3.5 NNE 20 28 11 15 1020.8 1020.6 0.0
29/04:00pm 21.8 20.0 15.4 67 3.8 NNE 19 26 10 14 1020.8 1020.6 0.0
29/03:30pm 24.0 21.1 16.0 61 4.9 NNE 26 33 14 18 1020.8 1020.6 0.0
29/03:00pm 22.6 19.7 15.0 62 4.5 NE 24 32 13 17 1021.0 1020.8 0.0
29/02:30pm 24.1 21.0 15.6 59 5.1 NNE 26 35 14 19 1021.1 1020.9 0.0
29/02:00pm 23.8 21.4 14.5 56 5.5 NE 20 30 11 16 1021.4 1021.2 0.0
29/01:30pm 23.6 22.1 14.3 56 5.5 NNE 15 22 8 12 1021.7 1021.5 0.0
29/01:00pm 23.4 21.5 14.1 56 5.5 N 17 26 9 14 1022.1 1021.9 0.0
29/12:30pm 23.1 20.9 13.3 54 5.7 N 17 26 9 14 1022.4 1022.2 0.0
29/12:00pm 22.6 21.1 14.2 59 4.9 N 15 26 8 14 1022.6 1022.4 0.0
29/11:30am 21.7 19.4 14.1 62 4.4 N 19 28 10 15 1022.8 1022.6 0.0
29/11:00am 20.0 18.6 14.6 71 3.1 N 15 24 8 13 1023.0 1022.8 0.0
29/10:30am 19.3 18.0 13.7 70 3.2 N 13 20 7 11 1023.2 1023.0 0.0
29/10:00am 18.1 17.5 13.4 74 2.7 NNW 9 13 5 7 1023.3 1023.1 0.0
29/09:30am 17.2 16.6 13.5 79 2.1 NNW 9 15 5 8 1023.1 1022.9 0.0
29/09:00am 16.6 16.0 13.5 82 1.7 NW 9 13 5 7 1022.9 1022.7 0.0
29/08:30am 16.2 16.2 13.5 84 1.5 NW 6 9 3 5 1022.7 1022.5 0.0
29/08:00am 14.9 14.2 13.1 89 1.0 NNW 9 11 5 6 1022.5 1022.3 0.0
29/07:30am 14.2 13.4 12.8 91 0.8 NW 9 11 5 6 1022.5 1022.3 0.0
29/07:00am 14.3 13.5 13.0 92 0.7 NW 9 11 5 6 1022.3 1022.1 0.0
29/06:30am 14.2 13.4 12.9 92 0.7 NW 9 11 5 6 1022.1 1021.9 0.0
29/06:00am 14.2 13.8 12.9 92 0.7 WNW 7 9 4 5 1021.7 1021.5 0.0
29/05:30am 14.1 13.2 12.7 91 0.8 NW 9 11 5 6 1021.9 1021.7 0.0
29/05:00am 14.2 13.4 12.8 91 0.8 NW 9 11 5 6 1021.7 1021.5 0.0
29/04:30am 14.5 13.7 12.9 90 0.9 NW 9 11 5 6 1021.6 1021.4 0.0
29/04:00am 14.4 13.6 13.0 91 0.8 NW 9 11 5 6 1021.8 1021.6 0.0
29/03:30am 14.7 14.1 13.4 92 0.7 NW 9 11 5 6 1021.9 1021.7 0.0
29/03:00am 15.1 15.1 13.5 90 0.9 NW 6 9 3 5 1022.2 1022.0 0.0
29/02:30am 15.2 15.1 13.2 88 1.1 NW 6 6 3 3 1022.5 1022.3 0.0
29/02:00am 15.1 14.4 13.3 89 1.0 NW 9 9 5 5 1022.8 1022.6 0.0
29/01:30am 15.4 14.8 13.6 89 1.0 NW 9 9 5 5 1023.1 1022.9 0.0
29/01:00am 15.4 15.2 13.6 89 1.0 WNW 7 9 4 5 1023.2 1023.0 0.0
29/12:30am 15.5 15.0 13.9 90 0.9 NW 9 11 5 6 1023.3 1023.1 0.0
29/12:00am 15.6 15.0 13.4 87 1.2 NW 9 11 5 6 1023.4 1023.2 0.0
 
Date/Time
EDT
Temp
°C
App
Temp
°C
Dew
Point
Rel
Hum
%
Delta-T
°C
Wind Press
QNH
hPa
Press
MSL
hPa
Rain
since 9 am
mm
Dir
 
Spd
km/h
Gust
km/h
Spd
kts
Gust
kts
28/11:30pm 16.6 16.1 13.7 83 1.6 NW 9 9 5 5 1023.8 1023.5 0.0
28/11:00pm 16.9 16.8 13.8 82 1.8 WNW 7 9 4 5 1024.0 1023.7 0.0
28/10:30pm 16.7 16.2 12.8 78 2.2 NW 7 9 4 5 1024.1 1023.8 0.0
28/10:00pm 16.9 16.4 12.2 74 2.6 NNW 6 7 3 4 1024.1 1023.8 0.0
28/09:30pm 16.2 16.8 11.8 75 2.4 CALM 0 0 0 0 1023.8 1023.5 0.0
28/09:00pm 16.6 17.1 11.7 73 2.7 CALM 0 0 0 0 1023.7 1023.4 0.0
28/08:30pm 17.2 17.0 11.9 71 2.9 E 4 7 2 4 1023.3 1023.1 0.0
28/08:00pm 17.6 18.0 12.5 72 2.8 ESE 2 7 1 4 1023.1 1022.9 0.0
28/07:30pm 17.7 17.9 11.9 69 3.2 E 2 6 1 3 1023.0 1022.8 0.0
28/07:00pm 18.1 17.5 11.7 66 3.5 ESE 6 11 3 6 1022.5 1022.3 0.0
28/06:30pm 18.3 17.2 11.8 66 3.6 SE 9 15 5 8 1022.3 1022.1 0.0
28/06:00pm 18.7 16.9 12.0 65 3.7 SE 13 17 7 9 1022.1 1021.9 0.0
28/05:30pm 19.0 16.7 11.6 62 4.1 SSE 15 22 8 12 1022.3 1022.1 0.0
28/05:00pm 19.2 16.3 11.0 59 4.5 SSE 17 28 9 15 1022.0 1021.8 0.0
28/04:30pm 19.9 17.0 10.9 56 4.9 SSE 17 22 9 12 1022.1 1021.9 0.0
28/04:00pm 20.2 17.7 11.1 56 5.0 SSE 15 20 8 11 1022.3 1022.1 0.0
28/03:30pm 20.3 17.5 10.1 52 5.5 SSE 15 24 8 13 1022.4 1022.2 0.0
28/03:00pm 20.2 17.5 10.3 53 5.3 SSE 15 24 8 13 1022.6 1022.4 0.0
28/02:30pm 20.1 17.7 10.2 53 5.4 SSE 13 22 7 12 1022.9 1022.7 0.0
28/02:00pm 19.7 17.3 10.1 54 5.1 S 13 22 7 12 1023.0 1022.8 0.0
28/01:30pm 20.0 17.2 9.9 52 5.4 S 15 26 8 14 1023.2 1023.0 0.0
28/01:00pm 19.7 17.3 9.9 53 5.2 SSW 13 22 7 12 1023.6 1023.3 0.0
28/12:30pm 19.2 16.5 10.5 57 4.7 SSW 15 24 8 13 1023.8 1023.5 0.0
28/12:00pm 19.5 17.1 10.0 54 5.1 S 13 22 7 12 1023.9 1023.6 0.0
28/11:30am 19.0 16.1 9.5 54 5.0 S 15 24 8 13 1023.7 1023.4 0.0
28/11:00am 18.7 15.8 9.8 56 4.7 SSW 15 24 8 13 1023.7 1023.4 0.0
28/10:30am 18.4 16.4 10.0 58 4.5 SW 11 20 6 11 1023.8 1023.5 0.0
28/10:00am 18.0 15.6 8.8 55 4.8 WSW 11 17 6 9 1023.8 1023.5 0.0
28/09:30am 17.6 15.3 9.0 57 4.5 W 11 20 6 11 1023.7 1023.4 0.0
28/09:00am 16.5 14.5 10.1 66 3.4 W 11 15 6 8 1023.3 1023.1 0.0
28/08:30am 15.5 13.4 9.8 69 3.0 WNW 11 15 6 8 1022.9 1022.7 0.0
28/08:00am 15.9 13.3 9.3 65 3.4 WNW 13 17 7 9 1022.5 1022.3 0.0
28/07:30am 16.0 13.6 8.7 62 3.7 WNW 11 13 6 7 1022.1 1021.9 0.0
28/07:00am 16.0 13.7 9.0 63 3.6 WNW 11 13 6 7 1021.7 1021.5 0.0
28/06:30am 15.5 13.3 9.2 66 3.3 W 11 13 6 7 1021.4 1021.2 0.0
28/06:00am 15.7 13.4 8.9 64 3.5 W 11 15 6 8 1021.1 1020.9 0.0
28/05:30am 15.9 13.9 8.6 62 3.7 W 9 11 5 6 1020.7 1020.5 0.0
28/05:00am 15.8 13.3 8.3 61 3.8 W 11 13 6 7 1020.5 1020.3 0.0
28/04:30am 15.9 13.3 7.9 59 4.0 WNW 11 13 6 7 1020.4 1020.2 0.0
28/04:00am 16.3 14.1 7.8 57 4.3 WNW 9 13 5 7 1020.5 1020.3 0.0
28/03:30am 16.8 14.8 8.5 58 4.3 W 9 11 5 6 1020.5 1020.3 0.0
28/03:00am 17.0 14.5 8.2 56 4.5 W 11 13 6 7 1020.6 1020.4 0.0
28/02:30am 17.3 14.5 6.8 50 5.2 W 11 15 6 8 1020.6 1020.4 0.0
28/02:00am 17.5 15.2 7.3 51 5.1 W 9 13 5 7 1020.5 1020.3 0.0
28/01:30am 17.4 15.2 8.0 54 4.8 W 9 13 5 7 1020.5 1020.3 0.0
28/01:00am 17.6 15.2 8.5 55 4.7 W 11 17 6 9 1020.4 1020.2 0.0
28/12:30am 17.4 13.7 8.0 54 4.8 W 17 26 9 14 1020.4 1020.2 0.0
28/12:00am 17.7 14.8 8.3 54 4.8 WNW 13 20 7 11 1020.3 1020.1 0.0
 
Date/Time
EDT
Temp
°C
App
Temp
°C
Dew
Point
Rel
Hum
%
Delta-T
°C
Wind Press
QNH
hPa
Press
MSL
hPa
Rain
since 9 am
mm
Dir
 
Spd
km/h
Gust
km/h
Spd
kts
Gust
kts
27/11:30pm 18.3 15.9 6.8 47 5.8 NW 9 15 5 8 1020.2 1020.0 0.0
27/11:00pm 18.6 15.5 7.1 47 5.8 W 13 24 7 13 1020.1 1019.9 0.0
27/10:30pm 19.1 15.8 6.6 44 6.3 W 13 20 7 11 1019.9 1019.7 0.0
27/10:00pm 19.4 16.0 7.5 46 6.1 W 15 22 8 12 1019.4 1019.1 0.0
27/09:30pm 19.6 16.2 7.7 46 6.1 WNW 15 24 8 13 1019.2 1018.9 0.0
27/09:00pm 19.8 16.6 6.9 43 6.5 W 13 24 7 13 1018.8 1018.5 0.0
27/08:30pm 20.1 16.1 6.8 42 6.7 W 17 24 9 13 1018.4 1018.1 0.0
27/08:00pm 20.5 16.5 6.8 41 7.0 WNW 17 26 9 14 1017.8 1017.5 0.0
27/07:30pm 20.8 17.3 7.4 42 6.9 WNW 15 26 8 14 1017.3 1017.0 0.0
27/07:00pm 21.3 17.5 7.5 41 7.1 WNW 17 30 9 16 1016.9 1016.6 0.0
27/06:30pm 21.9 18.4 7.0 38 7.7 W 15 22 8 12 1016.5 1016.2 0.0
27/06:00pm 22.3 17.8 6.9 37 7.9 WNW 20 32 11 17 1016.1 1015.8 0.0
27/05:30pm 22.7 18.0 6.0 34 8.5 WNW 20 30 11 16 1015.7 1015.4 0.0
27/05:00pm 23.0 18.5 6.3 34 8.5 WNW 19 30 10 16 1015.8 1015.5 0.0
27/04:30pm 23.4 20.4 7.5 36 8.3 NW 13 22 7 12 1016.1 1015.8 0.0
27/04:00pm 23.0 19.5 7.1 36 8.3 WNW 15 24 8 13 1016.2 1015.9 0.0
27/03:30pm 22.6 18.1 6.8 36 8.1 W 20 32 11 17 1016.7 1016.4 0.0
27/03:00pm 22.1 17.5 6.3 36 8.0 W 20 30 11 16 1016.9 1016.6 0.0
27/02:30pm 21.5 16.3 5.4 35 8.0 W 22 30 12 16 1017.0 1016.7 0.0
27/02:00pm 21.3 15.9 6.4 38 7.5 W 24 33 13 18 1017.2 1016.9 0.0
27/01:30pm 21.1 15.8 6.6 39 7.4 WSW 24 35 13 19 1017.8 1017.5 0.0
27/01:00pm 20.4 14.4 5.2 37 7.5 WSW 26 39 14 21 1018.0 1017.7 0.0
27/12:30pm 20.3 15.3 6.6 41 6.9 WSW 22 39 12 21 1018.6 1018.3 0.0
27/12:00pm 19.9 15.7 7.3 44 6.4 WSW 19 28 10 15 1018.7 1018.4 0.0

Other Formats:

Comma delimited format used in spreadsheet applications
http://www.bom.gov.au/fwo/IDN60801/IDN60801.95940.axf

JavaScript Object Notation format (JSON) in row-major order
http://www.bom.gov.au/fwo/IDN60801/IDN60801.95940.json